Time;durP1;ratioP1;P1;durP2;ratioP2;P2;SDS_P1;SDS_P2;PMS_P1;PMS_P2;Temp;Humidity;BMP_temperature;BMP_pressure;BME280_temperature;BME280_humidity;BME280_pressure;Samples;Min_cycle;Max_cycle;Signal;HPM_P1;HPM_P2
2022/10/20 00:00:18;;;;;;;9.75;2.40;;;10.20;99.90;;;;;;4979125;28;20058;-69
2022/10/20 00:02:43;;;;;;;5.15;1.92;;;10.20;99.90;;;;;;4974869;28;20126;-70
2022/10/20 00:05:09;;;;;;;6.55;2.58;;;10.20;99.90;;;;;;4975558;28;20030;-71
2022/10/20 00:07:34;;;;;;;5.03;2.08;;;10.30;99.90;;;;;;4975419;28;20035;-72
2022/10/20 00:10:00;;;;;;;4.50;1.85;;;10.30;99.90;;;;;;4976289;28;20474;-70
2022/10/20 00:12:25;;;;;;;4.05;2.13;;;10.30;99.90;;;;;;4980877;28;20049;-69
2022/10/20 00:14:51;;;;;;;4.60;2.30;;;10.30;99.90;;;;;;4975559;28;20038;-72
2022/10/20 00:17:16;;;;;;;6.57;2.28;;;10.30;99.90;;;;;;4983972;28;20092;-70
2022/10/20 00:19:42;;;;;;;7.57;2.28;;;10.30;99.90;;;;;;4980714;28;20041;-69
2022/10/20 00:22:08;;;;;;;4.90;2.05;;;10.30;99.90;;;;;;4983325;28;20034;-69
2022/10/20 00:24:33;;;;;;;4.90;2.08;;;10.30;99.90;;;;;;4986853;28;20386;-70
2022/10/20 00:26:59;;;;;;;5.72;2.28;;;10.30;99.90;;;;;;4977346;28;20041;-70
2022/10/20 00:29:24;;;;;;;7.07;1.67;;;10.30;99.90;;;;;;4978159;28;20050;-71
2022/10/20 00:31:50;;;;;;;3.95;2.08;;;10.30;99.90;;;;;;4979951;28;20031;-70
2022/10/20 00:34:15;;;;;;;6.22;1.90;;;10.40;99.90;;;;;;4979008;28;20042;-71
2022/10/20 00:36:41;;;;;;;6.07;2.03;;;10.40;99.90;;;;;;4980453;28;20398;-72
2022/10/20 00:39:06;;;;;;;5.47;2.28;;;10.40;99.90;;;;;;4975311;28;20035;-71
2022/10/20 00:41:33;;;;;;;3.95;2.13;;;10.40;99.90;;;;;;4978865;28;20042;-70
2022/10/20 00:44:01;;;;;;;4.50;1.90;;;10.40;99.90;;;;;;4984045;28;20022;-71
2022/10/20 00:46:35;;;;;;;5.30;1.95;;;10.30;99.90;;;;;;4984725;28;20108;-71
2022/10/20 00:49:13;;;;;;;5.78;2.42;;;10.30;99.90;;;;;;4976676;28;20169;-75
2022/10/20 00:51:38;;;;;;;8.63;2.50;;;10.30;99.90;;;;;;4979790;28;20499;-69
2022/10/20 00:54:09;;;;;;;4.80;2.03;;;10.30;99.90;;;;;;4977653;28;20045;-70
2022/10/20 00:56:37;;;;;;;3.17;1.65;;;10.30;99.90;;;;;;4976613;28;20039;-70
2022/10/20 00:59:03;;;;;;;6.30;2.17;;;10.30;99.90;;;;;;4976474;28;20030;-70
2022/10/20 01:01:29;;;;;;;6.40;2.38;;;10.30;99.90;;;;;;4975439;28;20156;-70
2022/10/20 01:03:55;;;;;;;23.58;3.35;;;10.30;99.90;;;;;;4980852;28;20042;-70
2022/10/20 01:06:21;;;;;;;4.50;1.92;;;10.30;99.90;;;;;;4979455;28;20518;-72
2022/10/20 01:08:51;;;;;;;5.90;3.08;;;10.30;99.90;;;;;;4974610;28;20097;-72
2022/10/20 01:11:31;;;;;;;8.07;2.55;;;10.40;99.90;;;;;;4977842;28;20406;-72
2022/10/20 01:14:03;;;;;;;10.05;2.40;;;10.30;99.90;;;;;;4975442;28;20089;-70
2022/10/20 01:16:56;;;;;;;5.85;2.38;;;10.30;99.90;;;;;;4976557;28;20042;-70
2022/10/20 01:19:40;;;;;;;7.78;2.55;;;10.30;99.90;;;;;;4969647;28;20100;-70
2022/10/20 01:22:38;;;;;;;6.25;2.92;;;10.30;99.90;;;;;;4978842;28;20038;-72
2022/10/20 01:25:31;;;;;;;4.88;2.35;;;10.30;99.90;;;;;;4958480;28;20042;-69
2022/10/20 01:28:09;;;;;;;7.20;2.60;;;10.30;99.90;;;;;;4976826;28;20121;-70
2022/10/20 01:30:43;;;;;;;10.93;2.80;;;10.30;99.90;;;;;;4975394;28;20050;-70
2022/10/20 01:33:19;;;;;;;9.00;3.25;;;10.30;99.90;;;;;;4974416;28;20034;-70
2022/10/20 01:35:48;;;;;;;10.20;2.60;;;10.20;99.90;;;;;;4979213;28;20031;-69
2022/10/20 01:38:22;;;;;;;4.43;2.42;;;10.20;99.90;;;;;;4978840;28;20046;-69
2022/10/20 01:40:53;;;;;;;9.10;2.65;;;10.20;99.90;;;;;;4971227;28;20039;-72
2022/10/20 01:43:22;;;;;;;8.02;2.65;;;10.20;99.90;;;;;;4962674;28;20026;-69
2022/10/20 01:45:51;;;;;;;7.32;2.67;;;10.10;99.90;;;;;;4980845;28;20053;-71
2022/10/20 01:48:21;;;;;;;8.15;2.60;;;10.10;99.90;;;;;;4973485;28;20042;-71
2022/10/20 01:50:48;;;;;;;9.65;2.65;;;10.00;99.90;;;;;;4972728;28;20554;-70
2022/10/20 01:53:15;;;;;;;7.13;2.70;;;10.10;99.90;;;;;;4973605;28;20506;-70
2022/10/20 01:55:41;;;;;;;8.30;3.13;;;10.00;99.90;;;;;;4975565;28;20089;-70
2022/10/20 01:58:28;;;;;;;6.32;2.60;;;10.00;99.90;;;;;;4980404;28;20510;-70
2022/10/20 02:00:58;;;;;;;5.80;2.42;;;10.10;99.90;;;;;;4967775;28;20564;-70
2022/10/20 02:03:55;;;;;;;6.75;2.53;;;10.00;99.90;;;;;;4981637;28;20034;-70
2022/10/20 02:06:31;;;;;;;7.95;2.65;;;10.00;99.90;;;;;;4958780;28;20049;-72
2022/10/20 02:09:00;;;;;;;8.57;2.85;;;9.90;99.90;;;;;;4973595;28;20038;-71
2022/10/20 02:11:32;;;;;;;11.30;3.00;;;9.90;99.90;;;;;;4978673;28;20038;-73
2022/10/20 02:13:59;;;;;;;7.93;2.65;;;9.90;99.90;;;;;;4973493;28;20046;-72
2022/10/20 02:16:35;;;;;;;8.93;2.97;;;9.90;99.90;;;;;;4968580;28;20089;-72
2022/10/20 02:19:02;;;;;;;5.07;2.45;;;9.90;99.90;;;;;;4976857;28;20063;-72
2022/10/20 02:21:28;;;;;;;7.45;2.97;;;9.90;99.90;;;;;;4977871;28;20078;-72
2022/10/20 02:23:55;;;;;;;7.55;2.63;;;9.80;99.90;;;;;;4977269;28;20037;-72
2022/10/20 02:26:24;;;;;;;7.28;3.00;;;9.80;99.90;;;;;;4980034;28;20050;-70
2022/10/20 02:28:57;;;;;;;6.30;2.80;;;9.90;99.90;;;;;;4971153;28;20510;-71
2022/10/20 02:31:23;;;;;;;6.55;3.20;;;9.90;99.90;;;;;;4975587;28;20054;-71
2022/10/20 02:33:50;;;;;;;7.97;3.42;;;9.90;99.90;;;;;;4977067;28;20031;-70
2022/10/20 02:36:19;;;;;;;6.30;2.80;;;9.80;99.90;;;;;;4972393;28;20085;-71
2022/10/20 02:38:45;;;;;;;13.38;3.65;;;9.90;99.90;;;;;;4975300;28;20518;-70
2022/10/20 02:41:11;;;;;;;7.80;2.70;;;9.80;99.90;;;;;;4976359;28;20465;-71
2022/10/20 02:43:36;;;;;;;5.13;3.25;;;9.80;99.90;;;;;;4975993;28;20126;-70
2022/10/20 02:46:02;;;;;;;10.38;3.63;;;9.80;99.90;;;;;;4974685;28;20050;-71
2022/10/20 02:48:28;;;;;;;13.13;3.20;;;9.80;99.90;;;;;;4979926;28;20130;-71
2022/10/20 02:50:53;;;;;;;8.55;3.65;;;9.80;99.90;;;;;;4975269;28;20038;-71
2022/10/20 02:53:19;;;;;;;6.28;3.35;;;9.90;99.90;;;;;;4977501;28;20566;-70
2022/10/20 02:55:44;;;;;;;7.63;3.60;;;9.90;99.90;;;;;;4972676;28;20153;-69
2022/10/20 02:58:10;;;;;;;8.05;3.55;;;9.80;99.90;;;;;;4976326;28;20101;-71
2022/10/20 03:00:36;;;;;;;7.38;2.92;;;9.80;99.90;;;;;;4973248;28;20559;-70
2022/10/20 03:03:01;;;;;;;8.70;4.30;;;9.80;99.90;;;;;;4978036;28;20125;-74
2022/10/20 03:05:28;;;;;;;11.00;4.28;;;9.80;99.90;;;;;;4979240;28;20042;-70
2022/10/20 03:07:53;;;;;;;8.57;3.63;;;9.80;99.90;;;;;;4978202;28;20043;-70
2022/10/20 03:10:19;;;;;;;11.63;4.22;;;9.80;99.90;;;;;;4978941;28;20085;-71
2022/10/20 03:12:45;;;;;;;8.52;3.78;;;9.80;99.90;;;;;;4975861;28;20041;-70
2022/10/20 03:15:10;;;;;;;10.60;4.78;;;9.80;99.90;;;;;;4978219;28;20038;-71
2022/10/20 03:17:36;;;;;;;17.55;4.78;;;9.70;99.90;;;;;;4977008;28;20042;-70
2022/10/20 03:20:02;;;;;;;12.77;4.80;;;9.70;99.90;;;;;;4978852;28;20078;-72
2022/10/20 03:22:28;;;;;;;10.48;4.07;;;9.70;99.90;;;;;;4977371;28;20038;-70
2022/10/20 03:24:53;;;;;;;8.35;3.88;;;9.70;99.90;;;;;;4976627;28;20065;-70
2022/10/20 03:27:19;;;;;;;9.30;3.92;;;9.70;99.90;;;;;;4978713;28;20039;-69
2022/10/20 03:29:44;;;;;;;10.95;4.30;;;9.70;99.90;;;;;;4978964;28;20030;-70
2022/10/20 03:32:10;;;;;;;10.98;3.90;;;9.70;99.90;;;;;;4976187;28;20047;-70
2022/10/20 03:34:35;;;;;;;10.02;3.63;;;9.80;99.90;;;;;;4978292;28;20030;-70
2022/10/20 03:37:01;;;;;;;8.10;3.95;;;9.80;99.90;;;;;;4978135;28;20426;-70
2022/10/20 03:39:27;;;;;;;6.93;3.88;;;9.80;99.90;;;;;;4977170;28;20157;-70
2022/10/20 03:41:54;;;;;;;9.32;4.35;;;9.80;99.90;;;;;;4978990;28;20117;-70
2022/10/20 03:44:20;;;;;;;11.05;4.75;;;9.90;99.90;;;;;;4976688;28;20034;-70
2022/10/20 03:46:45;;;;;;;7.82;3.70;;;9.90;99.90;;;;;;4978739;28;20042;-71
2022/10/20 03:49:11;;;;;;;13.13;5.15;;;9.90;99.90;;;;;;4976279;28;20146;-71
2022/10/20 03:51:37;;;;;;;7.95;3.65;;;9.90;99.90;;;;;;4977751;28;20062;-70
2022/10/20 03:54:02;;;;;;;8.68;4.10;;;9.90;99.90;;;;;;4974779;28;20038;-73
2022/10/20 03:56:28;;;;;;;9.40;4.00;;;9.90;99.90;;;;;;4978658;28;20055;-70
2022/10/20 03:58:54;;;;;;;10.32;4.32;;;9.90;99.90;;;;;;4978391;28;20068;-71
2022/10/20 04:01:23;;;;;;;12.93;4.20;;;10.00;99.90;;;;;;4975204;28;20038;-70
2022/10/20 04:03:48;;;;;;;12.73;4.50;;;10.00;99.90;;;;;;4975721;28;20491;-71
2022/10/20 04:06:15;;;;;;;9.52;3.95;;;10.00;99.90;;;;;;4978852;28;20042;-72
2022/10/20 04:08:41;;;;;;;7.03;3.47;;;9.90;99.90;;;;;;4975184;28;20031;-70
2022/10/20 04:11:06;;;;;;;10.23;3.80;;;9.90;99.90;;;;;;4977089;28;20050;-70
2022/10/20 04:13:32;;;;;;;9.88;4.35;;;10.00;99.90;;;;;;4976217;28;20034;-70
2022/10/20 04:15:58;;;;;;;9.48;3.78;;;10.00;99.90;;;;;;4976754;28;20039;-69
2022/10/20 04:18:24;;;;;;;7.32;3.30;;;10.10;99.90;;;;;;4977769;28;20030;-70
2022/10/20 04:20:49;;;;;;;9.38;3.72;;;10.10;99.90;;;;;;4977563;28;20074;-69
2022/10/20 04:23:15;;;;;;;8.05;3.80;;;10.10;99.90;;;;;;4976634;28;20550;-69
2022/10/20 04:25:44;;;;;;;10.23;3.83;;;10.10;99.90;;;;;;4978409;28;20050;-70
2022/10/20 04:28:11;;;;;;;9.57;4.28;;;10.20;99.90;;;;;;4972100;28;20035;-70
2022/10/20 04:30:38;;;;;;;8.90;4.00;;;10.10;99.90;;;;;;4977914;28;20030;-70
2022/10/20 04:33:04;;;;;;;9.10;3.70;;;10.10;99.90;;;;;;4975046;28;20117;-71
2022/10/20 04:35:29;;;;;;;10.35;4.13;;;10.10;99.90;;;;;;4977670;28;20744;-69
2022/10/20 04:37:55;;;;;;;8.70;4.75;;;10.10;99.90;;;;;;4977332;28;20054;-71
2022/10/20 04:40:20;;;;;;;11.63;4.57;;;10.20;99.90;;;;;;4974910;28;20057;-70
2022/10/20 04:42:46;;;;;;;12.80;4.05;;;10.20;99.90;;;;;;4976768;28;20035;-70
2022/10/20 04:45:11;;;;;;;14.82;4.20;;;10.10;99.90;;;;;;4973292;28;21733;-70
2022/10/20 04:47:37;;;;;;;8.13;4.25;;;10.10;99.90;;;;;;4979197;28;20220;-70
2022/10/20 04:50:04;;;;;;;7.97;3.80;;;10.10;99.90;;;;;;4973920;28;20411;-71
2022/10/20 04:52:30;;;;;;;7.85;3.70;;;10.20;99.90;;;;;;4976737;28;20030;-69
2022/10/20 04:54:55;;;;;;;10.45;4.43;;;10.20;99.90;;;;;;4976509;28;20081;-72
2022/10/20 04:57:21;;;;;;;8.95;3.95;;;10.20;99.90;;;;;;4975949;28;20045;-69
2022/10/20 04:59:47;;;;;;;7.45;4.47;;;10.20;99.90;;;;;;4978614;28;20041;-69
2022/10/20 05:02:12;;;;;;;11.48;3.80;;;10.20;99.90;;;;;;4976719;28;20506;-70
2022/10/20 05:04:38;;;;;;;10.85;4.00;;;10.20;99.90;;;;;;4978279;28;20042;-70
2022/10/20 05:07:03;;;;;;;11.80;3.60;;;10.20;99.90;;;;;;4982157;28;20026;-71
2022/10/20 05:09:30;;;;;;;9.30;3.50;;;10.20;99.90;;;;;;4983959;28;20034;-70
2022/10/20 05:11:55;;;;;;;17.25;4.25;;;10.20;99.90;;;;;;4984381;28;20739;-70
2022/10/20 05:14:21;;;;;;;9.82;4.38;;;10.20;99.90;;;;;;4980055;28;20047;-70
2022/10/20 05:16:47;;;;;;;12.38;4.00;;;10.20;99.90;;;;;;4980004;28;20487;-70
2022/10/20 05:19:12;;;;;;;12.85;3.78;;;10.20;99.90;;;;;;4982689;28;20034;-70
2022/10/20 05:21:38;;;;;;;11.20;4.15;;;10.20;99.90;;;;;;4977420;28;20151;-70
2022/10/20 05:24:05;;;;;;;12.30;3.58;;;10.20;99.90;;;;;;4974218;28;20035;-71
2022/10/20 05:26:34;;;;;;;10.23;3.97;;;10.20;99.90;;;;;;4976358;28;20050;-70
2022/10/20 05:29:02;;;;;;;10.98;3.60;;;10.20;99.90;;;;;;4974848;28;20027;-71
2022/10/20 05:31:28;;;;;;;6.97;3.60;;;10.20;99.90;;;;;;4977342;28;20034;-70
2022/10/20 05:33:55;;;;;;;8.98;3.72;;;10.20;99.90;;;;;;4975731;28;20038;-71
2022/10/20 05:36:25;;;;;;;8.77;4.03;;;10.20;99.90;;;;;;4963292;28;20041;-70
2022/10/20 05:38:52;;;;;;;7.63;4.18;;;10.20;99.90;;;;;;4973790;28;20843;-70
2022/10/20 05:41:20;;;;;;;11.25;4.13;;;10.20;99.90;;;;;;4967125;28;20149;-70
2022/10/20 05:43:50;;;;;;;9.00;4.53;;;10.10;99.90;;;;;;4971837;28;20574;-70
2022/10/20 05:46:17;;;;;;;11.60;3.83;;;10.10;99.90;;;;;;4970282;28;20046;-71
2022/10/20 05:48:44;;;;;;;10.90;3.45;;;10.10;99.90;;;;;;4974248;28;20045;-70
2022/10/20 05:51:21;;;;;;;6.97;3.50;;;10.20;99.90;;;;;;4969447;28;20043;-70
2022/10/20 05:53:46;;;;;;;21.15;4.65;;;10.20;99.90;;;;;;4973363;28;20051;-70
2022/10/20 05:56:15;;;;;;;8.82;3.88;;;10.10;99.90;;;;;;4969721;28;20128;-71
2022/10/20 05:58:42;;;;;;;9.18;3.97;;;10.10;99.90;;;;;;4972081;28;20049;-70
2022/10/20 06:01:15;;;;;;;6.75;3.67;;;10.10;99.90;;;;;;4974426;28;20074;-71
2022/10/20 06:03:40;;;;;;;7.95;3.97;;;10.10;99.90;;;;;;4974156;28;20034;-71
2022/10/20 06:06:06;;;;;;;7.50;3.38;;;10.10;99.90;;;;;;4969435;28;20053;-72
2022/10/20 06:08:32;;;;;;;6.50;3.63;;;10.10;99.90;;;;;;4971977;28;20037;-70
2022/10/20 06:11:06;;;;;;;8.93;3.75;;;10.10;99.90;;;;;;4969892;28;20473;-70
2022/10/20 06:13:32;;;;;;;9.13;4.43;;;10.10;99.90;;;;;;4965481;28;20126;-70
2022/10/20 06:16:10;;;;;;;7.82;3.22;;;10.10;99.90;;;;;;4969489;28;20121;-71
2022/10/20 06:18:39;;;;;;;7.05;3.65;;;10.10;99.90;;;;;;4969809;28;20173;-70
2022/10/20 06:21:08;;;;;;;6.53;3.40;;;10.10;99.90;;;;;;4969118;28;20053;-70
2022/10/20 06:23:34;;;;;;;10.75;4.00;;;10.10;99.90;;;;;;4965673;28;20046;-70
2022/10/20 06:26:18;;;;;;;8.63;3.90;;;10.10;99.90;;;;;;4971955;28;20039;-70
2022/10/20 06:28:47;;;;;;;10.43;3.45;;;10.10;99.90;;;;;;4965698;28;20137;-70
2022/10/20 06:31:21;;;;;;;7.03;3.63;;;10.10;99.90;;;;;;4968771;28;20506;-70
2022/10/20 06:33:47;;;;;;;9.50;3.85;;;10.20;99.90;;;;;;4967149;28;20049;-70
2022/10/20 06:36:13;;;;;;;8.55;4.35;;;10.10;99.90;;;;;;4972010;28;20117;-70
2022/10/20 06:38:39;;;;;;;7.50;3.53;;;10.10;99.90;;;;;;4971107;28;20039;-70
2022/10/20 06:41:08;;;;;;;8.68;3.80;;;10.10;99.90;;;;;;4969474;28;20151;-70
2022/10/20 06:43:33;;;;;;;10.88;4.22;;;10.10;99.90;;;;;;4970884;28;20150;-70
2022/10/20 06:46:01;;;;;;;8.32;3.95;;;10.10;99.90;;;;;;4970662;28;20121;-71
2022/10/20 06:48:27;;;;;;;10.25;3.83;;;10.20;99.90;;;;;;4970950;28;20149;-70
2022/10/20 06:50:57;;;;;;;11.52;3.70;;;10.20;99.90;;;;;;4972017;28;20121;-70
2022/10/20 06:53:23;;;;;;;11.45;4.25;;;10.20;99.90;;;;;;4972610;28;20743;-70
2022/10/20 06:56:10;;;;;;;11.90;4.55;;;10.20;99.90;;;;;;4973290;28;20055;-70
2022/10/20 06:58:37;;;;;;;9.50;3.90;;;10.20;99.90;;;;;;4970145;28;20050;-70
2022/10/20 07:01:08;;;;;;;8.38;3.90;;;10.20;99.90;;;;;;4970608;28;20047;-70
2022/10/20 07:03:35;;;;;;;10.00;3.83;;;10.20;99.90;;;;;;4970132;28;20072;-70
2022/10/20 07:06:02;;;;;;;13.13;3.88;;;10.20;99.90;;;;;;4972960;28;20042;-71
2022/10/20 07:08:29;;;;;;;7.50;3.63;;;10.30;99.90;;;;;;4970159;28;20086;-70
2022/10/20 07:10:59;;;;;;;9.63;4.38;;;10.30;99.90;;;;;;4974883;28;20042;-70
2022/10/20 07:13:25;;;;;;;10.05;3.95;;;10.40;99.90;;;;;;4973832;28;20169;-70
2022/10/20 07:15:56;;;;;;;14.43;4.47;;;10.40;99.90;;;;;;4970016;28;20084;-70
2022/10/20 07:18:21;;;;;;;;;;;10.40;99.90;;;;;;4971635;28;20070;-70
2022/10/20 07:20:47;;;;;;;9.82;4.13;;;10.40;99.90;;;;;;4971710;28;19952;-70
2022/10/20 07:23:12;;;;;;;8.80;4.40;;;10.40;99.90;;;;;;4970286;28;20523;-70
2022/10/20 07:25:40;;;;;;;6.82;3.80;;;10.40;99.90;;;;;;4973536;28;20062;-69
2022/10/20 07:28:06;;;;;;;10.48;4.75;;;10.40;99.90;;;;;;4972543;28;20049;-70
2022/10/20 07:30:40;;;;;;;10.18;3.88;;;10.50;99.90;;;;;;4974066;28;20134;-71
2022/10/20 07:33:07;;;;;;;8.82;4.53;;;10.50;99.90;;;;;;4972868;28;20041;-70
2022/10/20 07:35:33;;;;;;;11.57;3.90;;;10.50;99.90;;;;;;4968214;28;20123;-70
2022/10/20 07:37:59;;;;;;;8.00;3.42;;;10.50;99.90;;;;;;4971494;28;20030;-70
2022/10/20 07:40:24;;;;;;;10.68;3.55;;;10.60;99.90;;;;;;4970139;28;20073;-70
2022/10/20 07:42:50;;;;;;;12.43;3.83;;;10.60;99.90;;;;;;4972599;28;20060;-70
2022/10/20 07:45:15;;;;;;;6.25;3.42;;;10.60;99.90;;;;;;4972617;28;20053;-70
2022/10/20 07:47:41;;;;;;;7.68;3.38;;;10.60;99.90;;;;;;4970154;28;20141;-71
2022/10/20 07:50:08;;;;;;;10.13;3.85;;;10.70;99.90;;;;;;4973009;28;20038;-70
2022/10/20 07:52:33;;;;;;;8.48;3.67;;;10.80;99.90;;;;;;4974994;28;20411;-70
2022/10/20 07:54:59;;;;;;;8.55;3.75;;;10.80;99.90;;;;;;4965228;28;20035;-72
2022/10/20 07:57:24;;;;;;;10.63;3.47;;;10.70;99.90;;;;;;4969079;28;20134;-69
2022/10/20 07:59:50;;;;;;;13.55;3.70;;;10.80;99.90;;;;;;4974470;28;20042;-70
2022/10/20 08:02:16;;;;;;;8.35;3.50;;;10.90;99.90;;;;;;4973799;28;20755;-70
2022/10/20 08:04:43;;;;;;;7.85;3.55;;;10.90;99.90;;;;;;4969087;28;20042;-70
2022/10/20 08:07:09;;;;;;;10.07;3.70;;;10.90;99.90;;;;;;4972001;28;20545;-71
2022/10/20 08:09:35;;;;;;;7.45;3.47;;;10.90;99.90;;;;;;4974587;28;20062;-70
2022/10/20 08:12:01;;;;;;;9.00;3.63;;;11.00;99.90;;;;;;4969365;28;20199;-71
2022/10/20 08:14:30;;;;;;;8.18;3.90;;;11.00;99.90;;;;;;4963979;28;20035;-70
2022/10/20 08:16:56;;;;;;;7.63;3.38;;;11.10;99.90;;;;;;4969962;28;20034;-71
2022/10/20 08:19:22;;;;;;;6.03;3.50;;;11.10;99.90;;;;;;4970546;28;20394;-70
2022/10/20 08:21:47;;;;;;;10.40;4.03;;;11.20;99.90;;;;;;4971687;28;20038;-70
2022/10/20 08:24:13;;;;;;;9.52;3.85;;;11.20;99.90;;;;;;4972056;28;20503;-70
2022/10/20 08:26:38;;;;;;;11.15;4.65;;;11.20;99.90;;;;;;4971100;28;20629;-70
2022/10/20 08:29:04;;;;;;;8.52;3.67;;;11.30;99.90;;;;;;4974457;28;20100;-71
2022/10/20 08:31:29;;;;;;;8.43;4.43;;;11.30;99.90;;;;;;4970075;28;20038;-69
2022/10/20 08:33:55;;;;;;;13.02;4.50;;;11.40;99.90;;;;;;4968188;28;20041;-70
2022/10/20 08:36:21;;;;;;;7.07;4.18;;;11.40;99.90;;;;;;4971289;28;20480;-70
2022/10/20 08:38:47;;;;;;;10.13;4.68;;;11.40;99.90;;;;;;4973698;28;20827;-70
2022/10/20 08:41:32;;;;;;;8.15;3.65;;;11.50;99.90;;;;;;4972305;28;20067;-71
2022/10/20 08:43:59;;;;;;;8.93;3.90;;;11.50;99.90;;;;;;4972268;28;20034;-70
2022/10/20 08:46:34;;;;;;;8.50;3.67;;;11.50;99.90;;;;;;4970352;28;20043;-70
2022/10/20 08:49:02;;;;;;;7.70;3.95;;;11.60;99.90;;;;;;4962413;28;20126;-71
2022/10/20 08:51:32;;;;;;;8.80;4.00;;;11.60;99.90;;;;;;4966395;28;20042;-70
2022/10/20 08:54:00;;;;;;;7.22;3.88;;;11.70;99.90;;;;;;4968714;28;20486;-71
2022/10/20 08:56:28;;;;;;;8.95;3.85;;;11.70;99.90;;;;;;4967964;28;20046;-71
2022/10/20 08:58:54;;;;;;;9.52;4.40;;;11.80;99.90;;;;;;4972508;28;20049;-70
2022/10/20 09:01:26;;;;;;;8.90;4.03;;;11.90;99.90;;;;;;4970424;28;20042;-71
2022/10/20 09:04:01;;;;;;;8.93;4.30;;;11.90;99.90;;;;;;4971232;28;20123;-70
2022/10/20 09:06:27;;;;;;;9.20;4.40;;;12.00;99.90;;;;;;4959977;28;20887;-70
2022/10/20 09:08:54;;;;;;;14.90;5.13;;;12.00;99.90;;;;;;4967313;28;20041;-70
2022/10/20 09:11:24;;;;;;;11.18;4.38;;;12.10;99.90;;;;;;4967194;28;20109;-70
2022/10/20 09:13:51;;;;;;;9.10;3.87;;;12.10;99.90;;;;;;4969010;28;20045;-70
2022/10/20 09:16:29;;;;;;;8.98;3.83;;;12.10;99.90;;;;;;4972081;28;20487;-70
2022/10/20 09:18:57;;;;;;;8.68;3.92;;;12.10;99.90;;;;;;4964317;28;20839;-70
2022/10/20 09:21:31;;;;;;;8.70;4.07;;;12.10;99.90;;;;;;5090952;27;20138;-69
2022/10/20 09:24:02;;;;;;;12.60;4.57;;;12.20;99.90;;;;;;5077571;27;20040;-70
2022/10/20 09:26:42;;;;;;;;;;;12.20;99.90;;;;;;5093020;27;20032;-69
2022/10/20 09:29:11;;;;;;;8.70;4.97;;;12.20;99.90;;;;;;5071562;27;19916;-69
2022/10/20 09:31:42;;;;;;;7.30;4.13;;;12.30;99.90;;;;;;5069324;27;20523;-71
2022/10/20 09:34:23;;;;;;;10.73;5.40;;;12.30;99.90;;;;;;5071158;27;20059;-71
2022/10/20 09:36:52;;;;;;;9.43;4.53;;;12.40;99.90;;;;;;5076131;27;20047;-72
2022/10/20 09:39:23;;;;;;;9.27;4.47;;;12.40;99.90;;;;;;5077500;27;20116;-70
2022/10/20 09:41:59;;;;;;;13.48;4.65;;;12.40;99.90;;;;;;5070607;28;20040;-70
2022/10/20 09:44:25;;;;;;;10.50;5.15;;;12.40;99.90;;;;;;5071455;27;20035;-70
2022/10/20 09:46:53;;;;;;;15.32;5.10;;;12.50;99.90;;;;;;5071262;27;20024;-71
2022/10/20 09:49:43;;;;;;;9.20;4.57;;;12.50;99.90;;;;;;5073960;28;20742;-71
2022/10/20 09:52:22;;;;;;;9.63;4.25;;;12.50;99.90;;;;;;5071313;27;20040;-71
2022/10/20 09:54:49;;;;;;;22.98;5.55;;;12.70;99.90;;;;;;5077537;28;20070;-71
2022/10/20 09:57:20;;;;;;;12.25;4.25;;;12.70;99.90;;;;;;5075033;27;20052;-70
2022/10/20 09:59:49;;;;;;;16.00;5.82;;;12.80;99.90;;;;;;5070190;28;20044;-71
2022/10/20 10:02:14;;;;;;;9.63;5.13;;;12.80;99.90;;;;;;5076864;27;20040;-71
2022/10/20 10:04:43;;;;;;;10.85;4.72;;;12.90;99.90;;;;;;5070147;28;20533;-71
2022/10/20 10:07:31;;;;;;;10.00;4.38;;;12.90;99.90;;;;;;5074540;27;20039;-70
2022/10/20 10:09:56;;;;;;;8.75;4.75;;;13.00;99.90;;;;;;5068512;27;20036;-71
2022/10/20 10:12:23;;;;;;;11.30;4.18;;;13.00;99.90;;;;;;5072336;27;20872;-71
2022/10/20 10:14:58;;;;;;;9.10;5.07;;;13.00;99.90;;;;;;5073377;27;20040;-71
2022/10/20 10:17:41;;;;;;;11.95;4.55;;;13.00;99.90;;;;;;5074060;27;20043;-72
2022/10/20 10:20:33;;;;;;;9.05;4.53;;;13.00;99.90;;;;;;5068903;27;20044;-71
2022/10/20 10:23:18;;;;;;;12.13;5.15;;;13.10;99.90;;;;;;5077833;27;20492;-70
2022/10/20 10:25:44;;;;;;;12.43;5.03;;;13.10;99.90;;;;;;5073136;28;20047;-70
2022/10/20 10:28:25;;;;;;;8.73;4.30;;;13.10;99.90;;;;;;5077792;27;20519;-70
2022/10/20 10:31:24;;;;;;;13.95;5.18;;;13.20;99.90;;;;;;5073525;27;20037;-70
2022/10/20 10:34:01;;;;;;;10.02;4.55;;;13.10;99.90;;;;;;5054774;28;20581;-71
2022/10/20 10:36:35;;;;;;;10.63;5.05;;;13.20;99.90;;;;;;5060297;28;20039;-72
2022/10/20 10:39:03;;;;;;;15.30;5.45;;;13.20;99.90;;;;;;5061669;28;20576;-70
2022/10/20 10:41:41;;;;;;;11.10;5.13;;;13.20;99.90;;;;;;5062513;28;20040;-70
2022/10/20 10:44:32;;;;;;;12.25;5.38;;;13.10;99.90;;;;;;5059785;28;20029;-71
2022/10/20 10:47:49;;;;;;;13.27;5.28;;;13.10;99.90;;;;;;5059826;28;20040;-70
2022/10/20 10:50:33;;;;;;;20.58;6.45;;;13.10;99.90;;;;;;5059076;28;20038;-69
2022/10/20 10:52:59;;;;;;;10.40;5.65;;;13.00;99.90;;;;;;5063864;28;20422;-71
2022/10/20 10:55:33;;;;;;;16.77;5.75;;;13.00;99.90;;;;;;5064946;28;20803;-70
2022/10/20 10:58:19;;;;;;;17.13;6.78;;;13.10;99.90;;;;;;5066584;28;20035;-71
2022/10/20 11:01:13;;;;;;;13.43;6.70;;;13.00;99.90;;;;;;5059141;28;20068;-69
2022/10/20 11:03:54;;;;;;;12.32;5.93;;;13.00;99.90;;;;;;5059262;28;20041;-72
2022/10/20 11:06:50;;;;;;;14.95;5.85;;;13.00;99.90;;;;;;5058673;28;20037;-70
2022/10/20 11:09:31;;;;;;;16.50;6.80;;;13.00;99.90;;;;;;5058938;28;20060;-71
2022/10/20 11:12:36;;;;;;;14.45;6.50;;;13.00;99.90;;;;;;5062957;28;20097;-71
2022/10/20 11:15:20;;;;;;;15.38;6.70;;;13.00;99.90;;;;;;5062328;28;20040;-71
2022/10/20 11:18:04;;;;;;;25.40;7.15;;;13.10;99.90;;;;;;5062889;28;20037;-68
2022/10/20 11:20:50;;;;;;;14.15;6.15;;;13.00;99.90;;;;;;5062889;28;20041;-70
2022/10/20 11:23:28;;;;;;;11.63;6.30;;;13.00;99.90;;;;;;5061195;28;20439;-71
2022/10/20 11:26:21;;;;;;;19.40;7.32;;;13.00;99.90;;;;;;5061163;28;20033;-70
2022/10/20 11:28:50;;;;;;;17.00;7.32;;;13.00;99.90;;;;;;5062386;28;20048;-71
2022/10/20 11:31:28;;;;;;;15.73;6.87;;;13.00;99.90;;;;;;5068209;28;20400;-70
2022/10/20 11:34:09;;;;;;;13.77;7.00;;;13.00;99.90;;;;;;5066683;28;20350;-70
2022/10/20 11:36:46;;;;;;;17.00;6.82;;;13.00;99.90;;;;;;5062997;28;20549;-70
2022/10/20 11:39:32;;;;;;;17.52;7.43;;;13.00;99.90;;;;;;5065011;28;20036;-70
2022/10/20 11:42:09;;;;;;;16.60;6.88;;;13.00;99.90;;;;;;5054713;28;20125;-71
2022/10/20 11:44:40;;;;;;;17.77;7.20;;;13.00;99.90;;;;;;5061694;28;20071;-70
2022/10/20 11:47:14;;;;;;;14.30;6.78;;;13.00;99.90;;;;;;5064682;28;20033;-71
2022/10/20 11:49:40;;;;;;;14.40;6.60;;;13.00;99.90;;;;;;5066591;28;20088;-71
2022/10/20 11:52:26;;;;;;;17.70;8.27;;;13.00;99.90;;;;;;5065195;28;20040;-71
2022/10/20 11:55:21;;;;;;;19.48;7.43;;;13.00;99.90;;;;;;5064388;28;20424;-70
2022/10/20 11:58:02;;;;;;;19.48;8.23;;;13.00;99.90;;;;;;5068127;28;20036;-72
2022/10/20 12:00:55;;;;;;;17.13;7.32;;;13.10;99.90;;;;;;5068690;28;20052;-71
2022/10/20 12:03:40;;;;;;;18.67;6.97;;;13.10;99.90;;;;;;5044829;28;20039;-71
2022/10/20 12:06:31;;;;;;;17.98;7.70;;;13.10;99.90;;;;;;5058531;28;20056;-73
2022/10/20 12:09:12;;;;;;;14.43;7.68;;;13.20;99.90;;;;;;5064063;28;20044;-69
2022/10/20 12:12:05;;;;;;;14.05;7.38;;;13.20;99.90;;;;;;5065370;28;20047;-70
2022/10/20 12:14:55;;;;;;;17.05;7.40;;;13.20;99.90;;;;;;5058570;28;20089;-77
2022/10/20 12:17:34;;;;;;;22.23;8.02;;;13.20;99.90;;;;;;5061311;28;20746;-72
2022/10/20 12:20:21;;;;;;;18.83;9.15;;;13.20;99.90;;;;;;5065270;28;20028;-72
2022/10/20 12:22:53;;;;;;;16.15;7.57;;;13.30;99.90;;;;;;5064147;28;20125;-71
2022/10/20 12:25:34;;;;;;;17.75;7.38;;;13.30;99.90;;;;;;5073224;28;20119;-71
2022/10/20 12:28:18;;;;;;;15.30;7.10;;;13.30;99.90;;;;;;5058422;28;20043;-71
2022/10/20 12:30:55;;;;;;;20.20;7.90;;;13.30;99.90;;;;;;5062801;28;20043;-71
2022/10/20 12:33:53;;;;;;;19.40;8.77;;;13.30;99.90;;;;;;5058383;28;20051;-69
2022/10/20 12:36:18;;;;;;;16.15;6.72;;;13.30;99.90;;;;;;5054412;28;20664;-71
2022/10/20 12:38:46;;;;;;;22.38;8.07;;;13.30;99.90;;;;;;5059159;28;20124;-70
2022/10/20 12:41:28;;;;;;;22.95;8.20;;;13.40;99.90;;;;;;5049797;28;20070;-70
2022/10/20 12:43:59;;;;;;;20.65;8.55;;;13.40;99.90;;;;;;5054885;28;20040;-71
2022/10/20 12:46:30;;;;;;;19.77;8.65;;;13.40;99.90;;;;;;5051870;28;20039;-71
2022/10/20 12:49:03;;;;;;;16.20;7.88;;;13.40;99.90;;;;;;5048533;28;20127;-73
2022/10/20 12:51:40;;;;;;;16.25;8.77;;;13.50;99.90;;;;;;5056131;28;20044;-72
2022/10/20 12:54:25;;;;;;;19.95;8.43;;;13.50;99.90;;;;;;5052710;28;20400;-70
2022/10/20 12:56:54;;;;;;;19.35;8.38;;;13.60;99.90;;;;;;5055773;28;20028;-70
2022/10/20 12:59:28;;;;;;;19.20;8.60;;;13.70;99.90;;;;;;5060041;28;20095;-71
2022/10/20 13:02:09;;;;;;;22.42;8.73;;;13.70;99.90;;;;;;5060208;28;20942;-71
2022/10/20 13:05:00;;;;;;;18.90;8.00;;;13.80;99.90;;;;;;5056560;28;20096;-71